Time;durP1;ratioP1;P1;durP2;ratioP2;P2;SDS_P1;SDS_P2;PMS_P1;PMS_P2;Temp;Humidity;BMP_temperature;BMP_pressure;BME280_temperature;BME280_humidity;BME280_pressure;Samples;Min_cycle;Max_cycle;Signal;HPM_P1;HPM_P2
2023/03/05 00:01:10;;;;;;;3.30;2.00;;;6.50;99.90;;;;;;5136144;27;20468;-68
2023/03/05 00:03:36;;;;;;;1.73;1.27;;;6.40;99.90;;;;;;5136260;27;20164;-68
2023/03/05 00:06:03;;;;;;;3.83;1.60;;;6.40;99.90;;;;;;5115781;27;20432;-68
2023/03/05 00:08:29;;;;;;;5.20;2.17;;;6.40;99.90;;;;;;5115213;28;20442;-68
2023/03/05 00:11:03;;;;;;;6.63;1.77;;;6.40;99.90;;;;;;5127645;27;20418;-67
2023/03/05 00:13:29;;;;;;;7.90;1.90;;;6.40;99.90;;;;;;5135910;27;20786;-68
2023/03/05 00:15:55;;;;;;;2.57;1.40;;;6.30;99.90;;;;;;5135938;27;20406;-68
2023/03/05 00:18:21;;;;;;;6.33;2.30;;;6.30;99.90;;;;;;5122495;27;20443;-68
2023/03/05 00:20:47;;;;;;;3.43;1.33;;;6.30;99.90;;;;;;5134257;27;20241;-68
2023/03/05 00:23:12;;;;;;;6.43;1.73;;;6.30;99.90;;;;;;5141149;27;20409;-68
2023/03/05 00:25:39;;;;;;;3.40;1.20;;;6.30;99.90;;;;;;5134439;27;20172;-68
2023/03/05 00:28:05;;;;;;;5.63;1.73;;;6.20;99.90;;;;;;5135210;27;20240;-68
2023/03/05 00:30:32;;;;;;;6.47;2.13;;;6.20;99.90;;;;;;5135625;27;20541;-68
2023/03/05 00:32:58;;;;;;;4.40;1.40;;;6.20;99.90;;;;;;5135608;27;20421;-67
2023/03/05 00:35:23;;;;;;;4.53;2.00;;;6.20;99.90;;;;;;5135390;27;20440;-68
2023/03/05 00:37:49;;;;;;;5.57;1.80;;;6.20;99.90;;;;;;5135250;27;20168;-68
2023/03/05 00:40:15;;;;;;;4.70;1.60;;;6.20;99.90;;;;;;5135376;27;20191;-68
2023/03/05 00:42:41;;;;;;;3.03;1.87;;;6.20;99.90;;;;;;5127960;27;20407;-68
2023/03/05 00:45:08;;;;;;;3.77;1.57;;;6.20;99.90;;;;;;5133382;27;20183;-68
2023/03/05 00:47:34;;;;;;;4.13;1.70;;;6.20;99.90;;;;;;5134972;27;20165;-68
2023/03/05 00:50:00;;;;;;;2.00;1.30;;;6.20;99.90;;;;;;5134875;27;20409;-68
2023/03/05 00:52:26;;;;;;;9.23;1.20;;;6.20;99.90;;;;;;5135311;27;20393;-68
2023/03/05 00:54:52;;;;;;;2.60;1.17;;;6.20;99.90;;;;;;5134025;27;20413;-68
2023/03/05 00:57:17;;;;;;;4.90;1.30;;;6.20;99.90;;;;;;5135041;27;20164;-68
2023/03/05 00:59:43;;;;;;;6.03;1.47;;;6.20;99.90;;;;;;5135055;27;20172;-68
2023/03/05 01:02:08;;;;;;;4.80;1.50;;;6.20;99.90;;;;;;5135019;27;20176;-68
2023/03/05 01:04:34;;;;;;;8.20;1.50;;;6.20;99.90;;;;;;5127117;27;20180;-68
2023/03/05 01:07:00;;;;;;;3.50;1.70;;;6.20;99.90;;;;;;5114136;28;20180;-68
2023/03/05 01:09:25;;;;;;;2.10;1.10;;;6.20;99.90;;;;;;5114387;28;20197;-68
2023/03/05 01:11:52;;;;;;;5.17;1.67;;;6.20;99.90;;;;;;5129398;27;20216;-68
2023/03/05 01:14:18;;;;;;;4.13;1.27;;;6.20;99.90;;;;;;5114143;28;20267;-68
2023/03/05 01:16:43;;;;;;;3.63;1.20;;;6.20;99.90;;;;;;5114269;28;20403;-68
2023/03/05 01:19:09;;;;;;;6.20;1.73;;;6.20;99.90;;;;;;5113930;28;20459;-68
2023/03/05 01:21:35;;;;;;;6.03;2.23;;;6.20;99.90;;;;;;5114051;28;20193;-68
2023/03/05 01:24:01;;;;;;;1.93;1.27;;;6.20;99.90;;;;;;5114175;28;20424;-68
2023/03/05 01:26:27;;;;;;;1.80;1.37;;;6.20;99.90;;;;;;5114259;28;20489;-68
2023/03/05 01:28:52;;;;;;;3.00;1.53;;;6.20;99.90;;;;;;5113618;28;20952;-68
2023/03/05 01:31:18;;;;;;;1.17;0.83;;;6.20;99.90;;;;;;5118538;27;20209;-68
2023/03/05 01:33:44;;;;;;;2.13;1.27;;;6.20;99.90;;;;;;5145977;27;20247;-68
2023/03/05 01:36:15;;;;;;;5.07;2.17;;;6.20;99.90;;;;;;5134138;27;20175;-67
2023/03/05 01:38:45;;;;;;;8.63;1.17;;;6.20;99.90;;;;;;5133946;27;20168;-68
2023/03/05 01:41:12;;;;;;;3.07;1.23;;;6.20;99.90;;;;;;5134241;27;20441;-67
2023/03/05 01:43:38;;;;;;;10.73;1.47;;;6.20;99.90;;;;;;5130897;27;20413;-68
2023/03/05 01:46:25;;;;;;;1.50;1.40;;;6.20;99.90;;;;;;5134267;27;20483;-68
2023/03/05 01:49:11;;;;;;;4.73;1.20;;;6.20;99.90;;;;;;5133838;27;20478;-68
2023/03/05 01:51:41;;;;;;;2.33;1.40;;;6.20;99.90;;;;;;5132404;27;20951;-68
2023/03/05 01:54:09;;;;;;;3.57;1.13;;;6.20;99.90;;;;;;5134154;27;20755;-68
2023/03/05 01:56:35;;;;;;;8.17;1.83;;;6.20;99.90;;;;;;5134049;27;20394;-68
2023/03/05 01:59:02;;;;;;;5.50;1.40;;;6.10;99.90;;;;;;5133615;27;20433;-68
2023/03/05 02:01:35;;;;;;;2.20;0.90;;;6.20;99.90;;;;;;5133173;27;20446;-68
2023/03/05 02:04:01;;;;;;;5.57;1.27;;;6.20;99.90;;;;;;5130752;27;20494;-68
2023/03/05 02:06:27;;;;;;;3.73;1.30;;;6.10;99.90;;;;;;5113367;28;20770;-68
2023/03/05 02:08:53;;;;;;;2.97;1.20;;;6.10;99.90;;;;;;5112919;28;20467;-68
2023/03/05 02:11:19;;;;;;;2.53;1.13;;;6.10;99.90;;;;;;5115120;27;20422;-68
2023/03/05 02:13:44;;;;;;;3.73;1.10;;;6.10;99.90;;;;;;5133578;27;20285;-68
2023/03/05 02:16:10;;;;;;;6.43;0.93;;;6.10;99.90;;;;;;5133505;27;20971;-68
2023/03/05 02:18:35;;;;;;;1.87;1.20;;;6.10;99.90;;;;;;5133246;27;20633;-68
2023/03/05 02:21:06;;;;;;;4.40;1.10;;;6.10;99.90;;;;;;5133530;27;20184;-67
2023/03/05 02:23:35;;;;;;;2.13;1.23;;;6.10;99.90;;;;;;5133521;27;20165;-68
2023/03/05 02:26:02;;;;;;;2.00;1.50;;;6.10;99.90;;;;;;5133487;27;20504;-67
2023/03/05 02:28:39;;;;;;;1.40;0.90;;;6.10;99.90;;;;;;5133025;27;20453;-68
2023/03/05 02:31:16;;;;;;;1.93;1.07;;;6.00;99.90;;;;;;5133343;27;20504;-68
2023/03/05 02:33:42;;;;;;;1.57;1.27;;;6.10;99.90;;;;;;5133354;27;20409;-68
2023/03/05 02:36:09;;;;;;;2.93;1.00;;;6.10;99.90;;;;;;5133303;27;20429;-67
2023/03/05 02:38:35;;;;;;;4.03;1.10;;;6.10;99.90;;;;;;5132981;27;20957;-67
2023/03/05 02:41:00;;;;;;;2.00;1.30;;;6.10;99.90;;;;;;5131453;27;20513;-68
2023/03/05 02:43:26;;;;;;;2.30;1.00;;;6.10;99.90;;;;;;5126587;27;20175;-68
2023/03/05 02:45:51;;;;;;;1.30;0.80;;;6.10;99.90;;;;;;5141537;27;20210;-68
2023/03/05 02:48:17;;;;;;;4.50;1.13;;;6.10;99.90;;;;;;5132759;27;20237;-68
2023/03/05 02:50:43;;;;;;;1.30;0.90;;;6.10;99.90;;;;;;5132998;27;20184;-68
2023/03/05 02:53:09;;;;;;;1.90;1.03;;;6.10;99.90;;;;;;5132991;27;20630;-68
2023/03/05 02:55:34;;;;;;;1.40;1.30;;;6.10;99.90;;;;;;5133097;27;20446;-68
2023/03/05 02:58:00;;;;;;;1.40;1.00;;;6.20;99.90;;;;;;5132722;27;20160;-68
2023/03/05 03:00:25;;;;;;;4.60;1.53;;;6.20;99.90;;;;;;5132812;27;20531;-68
2023/03/05 03:02:51;;;;;;;2.47;1.60;;;6.20;99.90;;;;;;5133008;27;20164;-68
2023/03/05 03:05:17;;;;;;;3.20;0.93;;;6.20;99.90;;;;;;5118990;27;20173;-68
2023/03/05 03:07:42;;;;;;;2.40;1.10;;;6.20;99.90;;;;;;5111921;28;20175;-67
2023/03/05 03:10:09;;;;;;;4.27;1.80;;;6.20;99.90;;;;;;5112245;28;20493;-68
2023/03/05 03:12:42;;;;;;;6.20;1.73;;;6.20;99.90;;;;;;5112853;28;20251;-68
2023/03/05 03:15:10;;;;;;;3.00;1.67;;;6.10;99.90;;;;;;5116625;28;20410;-67
2023/03/05 03:17:37;;;;;;;4.67;1.70;;;6.10;99.90;;;;;;5116225;28;20402;-68
2023/03/05 03:20:04;;;;;;;1.33;1.10;;;6.10;99.90;;;;;;5116457;27;20422;-68
2023/03/05 03:22:30;;;;;;;2.20;1.47;;;6.10;99.90;;;;;;5116489;28;20398;-68
2023/03/05 03:24:56;;;;;;;1.60;1.50;;;6.10;99.90;;;;;;5116390;28;20905;-67
2023/03/05 03:27:22;;;;;;;6.23;2.37;;;6.00;99.90;;;;;;5116024;28;20165;-67
2023/03/05 03:29:47;;;;;;;1.67;1.00;;;6.00;99.90;;;;;;5116219;28;20192;-68
2023/03/05 03:32:13;;;;;;;12.23;1.40;;;6.00;99.90;;;;;;5116266;28;20486;-68
2023/03/05 03:34:39;;;;;;;1.67;1.20;;;6.00;99.90;;;;;;5116253;28;20172;-68
2023/03/05 03:37:05;;;;;;;5.83;1.47;;;6.00;99.90;;;;;;5115928;28;20168;-68
2023/03/05 03:39:31;;;;;;;2.90;1.20;;;6.00;99.90;;;;;;5116109;28;20165;-68
2023/03/05 03:41:56;;;;;;;3.00;1.30;;;6.00;99.90;;;;;;5116999;27;20563;-68
2023/03/05 03:44:22;;;;;;;4.10;1.50;;;6.00;99.90;;;;;;5115981;28;20458;-68
2023/03/05 03:46:49;;;;;;;4.37;1.20;;;6.00;99.90;;;;;;5114719;28;20165;-68
2023/03/05 03:49:21;;;;;;;7.97;1.87;;;6.00;99.90;;;;;;5114420;28;20691;-68
2023/03/05 03:51:47;;;;;;;2.70;1.63;;;6.00;99.90;;;;;;5148883;27;20424;-68
2023/03/05 03:54:14;;;;;;;2.90;1.20;;;6.00;99.90;;;;;;5136453;27;20405;-68
2023/03/05 03:56:40;;;;;;;3.10;1.50;;;6.00;99.90;;;;;;5136361;27;20773;-68
2023/03/05 03:59:05;;;;;;;2.03;0.90;;;6.00;99.90;;;;;;5131454;27;20422;-68
2023/03/05 04:01:31;;;;;;;1.50;0.83;;;6.00;99.90;;;;;;5115687;28;20196;-68
2023/03/05 04:03:56;;;;;;;3.77;1.30;;;6.00;99.90;;;;;;5118097;27;20635;-68
2023/03/05 04:06:22;;;;;;;5.23;1.83;;;6.00;99.90;;;;;;5136281;27;20172;-68
2023/03/05 04:08:47;;;;;;;4.10;2.83;;;6.00;99.90;;;;;;5135825;27;20561;-68
2023/03/05 04:11:15;;;;;;;4.53;1.87;;;5.90;99.90;;;;;;5135912;27;20538;-68
2023/03/05 04:13:40;;;;;;;5.17;1.40;;;5.90;99.90;;;;;;5136008;27;20176;-68
2023/03/05 04:16:06;;;;;;;3.00;1.43;;;5.90;99.90;;;;;;5135814;27;20483;-67
2023/03/05 04:18:32;;;;;;;2.70;1.33;;;5.90;99.90;;;;;;5135055;27;20163;-68
2023/03/05 04:20:57;;;;;;;6.70;2.27;;;5.90;99.90;;;;;;5135689;27;20420;-68
2023/03/05 04:23:23;;;;;;;3.63;1.20;;;5.90;99.90;;;;;;5135876;27;20168;-68
2023/03/05 04:25:49;;;;;;;4.40;1.33;;;6.00;99.90;;;;;;5134939;27;20256;-68
2023/03/05 04:28:14;;;;;;;4.07;1.10;;;6.00;99.90;;;;;;5135487;27;20225;-68
2023/03/05 04:30:40;;;;;;;2.93;1.00;;;6.00;99.90;;;;;;5127645;27;20193;-68
2023/03/05 04:33:06;;;;;;;1.30;0.80;;;6.00;99.90;;;;;;5115122;28;20168;-68
2023/03/05 04:35:31;;;;;;;2.70;1.27;;;6.00;99.90;;;;;;5117402;28;20437;-68
2023/03/05 04:37:57;;;;;;;4.03;1.30;;;6.00;99.90;;;;;;5117008;28;20214;-68
2023/03/05 04:40:22;;;;;;;7.33;1.20;;;5.90;99.90;;;;;;5114866;28;20177;-68
2023/03/05 04:42:48;;;;;;;7.33;1.90;;;5.90;99.90;;;;;;5114960;28;20651;-68
2023/03/05 04:45:16;;;;;;;2.03;1.40;;;5.90;99.90;;;;;;5114934;28;20176;-67
2023/03/05 04:47:41;;;;;;;3.07;2.10;;;5.90;99.90;;;;;;5114459;28;20168;-67
2023/03/05 04:50:08;;;;;;;5.27;2.40;;;5.90;99.90;;;;;;5114784;28;20423;-68
2023/03/05 04:52:34;;;;;;;4.83;1.60;;;5.80;99.90;;;;;;5113435;28;20524;-68
2023/03/05 04:54:59;;;;;;;6.83;1.20;;;5.80;99.90;;;;;;5114846;28;20398;-68
2023/03/05 04:57:25;;;;;;;1.73;1.43;;;5.80;99.90;;;;;;5114426;28;20584;-67
2023/03/05 04:59:50;;;;;;;10.20;2.30;;;5.80;99.90;;;;;;5118307;27;20196;-68
2023/03/05 05:02:16;;;;;;;7.20;2.40;;;5.80;99.90;;;;;;5142169;27;20163;-68
2023/03/05 05:04:43;;;;;;;5.40;2.00;;;5.80;99.90;;;;;;5131479;27;20168;-68
2023/03/05 05:07:10;;;;;;;9.40;3.23;;;5.80;99.90;;;;;;5114159;28;20256;-67
2023/03/05 05:09:37;;;;;;;3.00;1.70;;;5.80;99.90;;;;;;5112671;28;20451;-67
2023/03/05 05:12:03;;;;;;;6.77;2.17;;;5.80;99.90;;;;;;5114120;28;20399;-68
2023/03/05 05:14:28;;;;;;;6.80;1.70;;;5.80;99.90;;;;;;5114063;28;20433;-68
2023/03/05 05:16:54;;;;;;;2.23;1.33;;;5.80;99.90;;;;;;5113730;28;20444;-68
2023/03/05 05:19:19;;;;;;;4.70;1.90;;;5.80;99.90;;;;;;5114012;28;20209;-68
2023/03/05 05:21:45;;;;;;;4.77;1.33;;;5.80;99.90;;;;;;5113927;28;20193;-68
2023/03/05 05:24:10;;;;;;;6.57;2.07;;;5.80;99.90;;;;;;5113919;28;20639;-67
2023/03/05 05:26:36;;;;;;;9.73;1.70;;;5.80;99.90;;;;;;5113982;28;20165;-69
2023/03/05 05:29:01;;;;;;;4.30;2.50;;;5.80;99.90;;;;;;5117024;28;20201;-67
2023/03/05 05:31:27;;;;;;;5.40;1.40;;;5.80;99.90;;;;;;5116799;27;20216;-68
2023/03/05 05:33:53;;;;;;;8.57;1.80;;;5.80;99.90;;;;;;5115248;28;20161;-68
2023/03/05 05:36:21;;;;;;;2.63;1.43;;;5.80;99.90;;;;;;5115898;28;20165;-68
2023/03/05 05:38:46;;;;;;;5.00;2.17;;;5.80;99.90;;;;;;5113383;28;20161;-68
2023/03/05 05:41:15;;;;;;;3.43;2.43;;;5.80;99.90;;;;;;5113624;28;20437;-68
2023/03/05 05:43:41;;;;;;;3.83;2.60;;;5.80;99.90;;;;;;5113816;28;20877;-68
2023/03/05 05:46:10;;;;;;;4.43;2.93;;;5.80;99.90;;;;;;5113683;28;20490;-68
2023/03/05 05:48:36;;;;;;;6.40;3.87;;;5.80;99.90;;;;;;5113335;28;20476;-69
2023/03/05 05:51:07;;;;;;;10.13;4.60;;;5.70;99.90;;;;;;5113631;28;20468;-68
2023/03/05 05:53:33;;;;;;;8.50;4.87;;;5.70;99.90;;;;;;5113546;28;20157;-69
2023/03/05 05:55:59;;;;;;;4.30;2.70;;;5.70;99.90;;;;;;5113537;28;20399;-68
2023/03/05 05:58:24;;;;;;;3.33;2.20;;;5.70;99.90;;;;;;5118048;27;20183;-68
2023/03/05 06:00:50;;;;;;;3.03;2.30;;;5.70;99.90;;;;;;5126458;27;20435;-69
2023/03/05 06:03:16;;;;;;;3.37;2.03;;;5.70;99.90;;;;;;5113465;28;20165;-68
2023/03/05 06:05:42;;;;;;;4.33;1.97;;;5.70;99.90;;;;;;5113233;28;20164;-67
2023/03/05 06:08:08;;;;;;;7.30;2.57;;;5.70;99.90;;;;;;5112885;28;20220;-68
2023/03/05 06:10:33;;;;;;;3.80;1.80;;;5.70;99.90;;;;;;5113204;28;20414;-68
2023/03/05 06:12:59;;;;;;;5.37;3.10;;;5.70;99.90;;;;;;5124261;27;20422;-67
2023/03/05 06:15:24;;;;;;;5.83;2.90;;;5.70;99.90;;;;;;5150271;27;20401;-68
2023/03/05 06:17:51;;;;;;;4.23;2.00;;;5.70;99.90;;;;;;5127429;27;20205;-68
2023/03/05 06:20:17;;;;;;;6.53;2.50;;;5.60;99.90;;;;;;5133024;27;20183;-68
2023/03/05 06:22:42;;;;;;;3.17;1.60;;;5.60;99.90;;;;;;5133473;27;20468;-68
2023/03/05 06:25:09;;;;;;;3.40;2.30;;;5.40;99.90;;;;;;5137554;27;20168;-68
2023/03/05 06:27:35;;;;;;;4.40;1.43;;;5.40;99.90;;;;;;5133837;27;20157;-68
2023/03/05 06:30:02;;;;;;;3.83;1.67;;;5.50;99.90;;;;;;5133264;27;20973;-68
2023/03/05 06:32:27;;;;;;;4.00;1.83;;;5.50;99.90;;;;;;5133259;27;20397;-68
2023/03/05 06:34:53;;;;;;;3.00;1.53;;;5.40;99.90;;;;;;5133161;27;20394;-68
2023/03/05 06:37:18;;;;;;;8.70;1.70;;;5.40;99.90;;;;;;5132877;27;20579;-68
2023/03/05 06:39:44;;;;;;;39.87;17.47;;;5.40;99.90;;;;;;5133148;27;20161;-68
2023/03/05 06:42:10;;;;;;;15.57;7.90;;;5.40;99.90;;;;;;5133143;27;20535;-68
2023/03/05 06:44:39;;;;;;;4.20;2.10;;;5.50;99.90;;;;;;5133000;27;20386;-68
2023/03/05 06:47:07;;;;;;;4.70;2.13;;;5.50;99.90;;;;;;5131204;27;20210;-69
2023/03/05 06:49:32;;;;;;;4.03;2.23;;;5.60;99.90;;;;;;5132767;27;20971;-68
2023/03/05 06:51:58;;;;;;;1.50;1.30;;;5.60;99.90;;;;;;5132885;27;20481;-68
2023/03/05 06:54:23;;;;;;;4.77;1.90;;;5.60;99.90;;;;;;5132932;27;20232;-69
2023/03/05 06:56:49;;;;;;;3.77;1.80;;;5.70;99.90;;;;;;5132817;27;20160;-68
2023/03/05 06:59:16;;;;;;;2.40;1.40;;;5.70;99.90;;;;;;5132931;27;20670;-69
2023/03/05 07:01:42;;;;;;;2.87;1.73;;;5.70;99.90;;;;;;5133015;27;20277;-68
2023/03/05 07:04:09;;;;;;;3.93;1.30;;;5.70;99.90;;;;;;5131522;27;20982;-68
2023/03/05 07:06:37;;;;;;;6.57;2.10;;;5.70;99.90;;;;;;5114422;28;20401;-68
2023/03/05 07:09:04;;;;;;;3.13;2.03;;;5.70;99.90;;;;;;5110670;28;20447;-69
2023/03/05 07:11:30;;;;;;;4.97;3.40;;;5.70;99.90;;;;;;5112191;28;20414;-68
2023/03/05 07:13:55;;;;;;;35.30;16.90;;;5.70;99.90;;;;;;5112173;28;20415;-68
2023/03/05 07:16:24;;;;;;;9.43;3.40;;;5.80;99.90;;;;;;5112280;28;20163;-68
2023/03/05 07:18:51;;;;;;;3.77;1.93;;;5.90;99.90;;;;;;5123956;28;20168;-68
2023/03/05 07:21:19;;;;;;;5.90;2.00;;;6.00;99.90;;;;;;5132741;27;20429;-68
2023/03/05 07:23:45;;;;;;;8.53;2.63;;;6.10;99.90;;;;;;5134353;27;20458;-68
2023/03/05 07:26:11;;;;;;;5.97;1.90;;;6.10;99.90;;;;;;5146833;27;20412;-68
2023/03/05 07:28:36;;;;;;;5.13;2.13;;;6.20;99.90;;;;;;5132426;27;20441;-68
2023/03/05 07:31:04;;;;;;;5.30;1.90;;;6.20;99.90;;;;;;5132674;27;20550;-68
2023/03/05 07:33:31;;;;;;;3.23;2.07;;;6.20;99.90;;;;;;5132718;27;20161;-68
2023/03/05 07:35:56;;;;;;;4.87;1.93;;;6.30;99.90;;;;;;5132663;27;20429;-69
2023/03/05 07:38:22;;;;;;;2.73;1.20;;;6.30;99.90;;;;;;5131121;28;20417;-69
2023/03/05 07:40:48;;;;;;;8.47;1.97;;;6.30;99.90;;;;;;5132441;27;20203;-69
2023/03/05 07:43:14;;;;;;;3.50;2.20;;;6.40;99.90;;;;;;5132613;27;20200;-69
2023/03/05 07:45:41;;;;;;;5.23;1.80;;;6.40;99.90;;;;;;5132612;28;20764;-69
2023/03/05 07:48:10;;;;;;;3.10;2.00;;;6.40;99.90;;;;;;5113070;27;20197;-68
2023/03/05 07:50:36;;;;;;;7.93;2.60;;;6.40;99.90;;;;;;5123295;28;20428;-69
2023/03/05 07:53:01;;;;;;;8.33;3.07;;;6.50;99.90;;;;;;5132515;27;20389;-69
2023/03/05 07:55:27;;;;;;;7.90;2.53;;;6.50;99.90;;;;;;5132461;27;20171;-68
2023/03/05 07:57:52;;;;;;;6.47;1.90;;;6.50;99.90;;;;;;5131937;28;20171;-68
2023/03/05 08:00:18;;;;;;;4.30;2.23;;;6.50;99.90;;;;;;5134251;27;20249;-68
2023/03/05 08:02:44;;;;;;;33.67;16.27;;;6.50;99.90;;;;;;5136545;27;20164;-68
2023/03/05 08:05:10;;;;;;;6.73;3.60;;;6.50;99.90;;;;;;5126817;27;20165;-67
2023/03/05 08:07:36;;;;;;;12.30;2.57;;;6.50;99.90;;;;;;5118314;28;20409;-67
2023/03/05 08:10:02;;;;;;;7.37;2.80;;;6.60;99.90;;;;;;5117893;28;20201;-68
2023/03/05 08:12:28;;;;;;;6.83;2.10;;;6.70;99.90;;;;;;5115416;28;20366;-68
2023/03/05 08:14:53;;;;;;;2.93;1.90;;;6.60;99.90;;;;;;5115643;28;20418;-68
2023/03/05 08:17:19;;;;;;;2.33;1.80;;;6.70;99.90;;;;;;5120529;27;20908;-68
2023/03/05 08:19:45;;;;;;;4.73;1.93;;;6.80;99.90;;;;;;5135786;27;20175;-68
2023/03/05 08:22:10;;;;;;;2.43;1.83;;;6.80;99.90;;;;;;5136071;27;20176;-68
2023/03/05 08:24:36;;;;;;;10.60;2.50;;;6.80;99.90;;;;;;5135962;27;20653;-68
2023/03/05 08:27:01;;;;;;;8.67;2.27;;;6.80;99.90;;;;;;5135039;27;20165;-68
2023/03/05 08:29:27;;;;;;;2.93;2.07;;;6.90;99.90;;;;;;5135776;27;20754;-68
2023/03/05 08:31:53;;;;;;;5.17;2.50;;;7.00;99.90;;;;;;5134375;27;20187;-69
2023/03/05 08:34:20;;;;;;;8.20;2.40;;;7.00;99.90;;;;;;5148022;27;20186;-68
2023/03/05 08:36:46;;;;;;;2.53;2.23;;;7.00;99.90;;;;;;5139994;27;20259;-69
2023/03/05 08:39:11;;;;;;;3.20;2.13;;;7.00;99.90;;;;;;5139564;27;20425;-69
2023/03/05 08:41:37;;;;;;;2.93;1.73;;;7.00;99.90;;;;;;5138788;27;20504;-67
2023/03/05 08:44:03;;;;;;;3.23;2.43;;;7.10;99.90;;;;;;5138993;27;20175;-68
2023/03/05 08:46:28;;;;;;;4.50;3.00;;;7.20;99.90;;;;;;5131605;27;20192;-68
2023/03/05 08:48:54;;;;;;;6.13;2.30;;;7.20;99.90;;;;;;5117518;28;20193;-68
2023/03/05 08:51:24;;;;;;;2.83;1.70;;;7.30;99.90;;;;;;5117695;28;20181;-69
2023/03/05 08:53:50;;;;;;;6.73;2.03;;;7.20;99.90;;;;;;5118371;28;20167;-69
2023/03/05 08:56:16;;;;;;;5.00;3.03;;;7.30;99.90;;;;;;5117524;28;20402;-68
2023/03/05 08:58:42;;;;;;;4.63;2.20;;;7.30;99.90;;;;;;5114252;28;20402;-68
2023/03/05 09:01:09;;;;;;;3.57;1.77;;;7.30;99.90;;;;;;5114566;28;20561;-68
2023/03/05 09:03:34;;;;;;;7.87;3.13;;;7.30;99.90;;;;;;5117450;28;20470;-69
2023/03/05 09:06:02;;;;;;;2.53;1.80;;;7.40;99.90;;;;;;5117290;28;20446;-67
2023/03/05 09:08:28;;;;;;;10.83;3.10;;;7.50;99.90;;;;;;5117178;28;20197;-67
2023/03/05 09:10:54;;;;;;;3.40;2.50;;;7.60;99.90;;;;;;5114210;28;20977;-69
2023/03/05 09:13:19;;;;;;;3.20;2.43;;;7.80;99.90;;;;;;5114250;28;20422;-68
2023/03/05 09:15:52;;;;;;;3.13;2.63;;;8.00;99.90;;;;;;5114989;27;20550;-69
2023/03/05 09:18:17;;;;;;;5.23;2.40;;;8.30;99.90;;;;;;5129739;27;20168;-69
2023/03/05 09:20:43;;;;;;;8.60;3.03;;;8.80;99.90;;;;;;5134604;27;20825;-69
2023/03/05 09:23:08;;;;;;;5.73;3.03;;;9.40;99.90;;;;;;5134567;27;20172;-69
2023/03/05 09:25:34;;;;;;;4.27;2.37;;;10.10;99.90;;;;;;5118509;27;20184;-67
2023/03/05 09:27:59;;;;;;;12.00;3.20;;;10.60;99.90;;;;;;5113700;28;20168;-69
2023/03/05 09:30:25;;;;;;;6.30;4.17;;;10.80;99.90;;;;;;5113881;28;20184;-69
2023/03/05 09:32:50;;;;;;;8.37;4.33;;;10.80;99.90;;;;;;5113910;28;20200;-67
2023/03/05 09:35:16;;;;;;;5.07;3.30;;;10.70;99.90;;;;;;5113852;28;20161;-67
2023/03/05 09:37:41;;;;;;;8.17;2.90;;;10.60;99.90;;;;;;5113621;28;20169;-69
2023/03/05 09:40:10;;;;;;;4.47;2.87;;;10.40;99.90;;;;;;5138761;27;20203;-68
2023/03/05 09:43:10;;;;;;;10.93;2.80;;;10.10;99.90;;;;;;5130648;27;20176;-68
2023/03/05 09:46:12;;;;;;;2.93;2.40;;;10.00;99.90;;;;;;5113654;28;20431;-66
2023/03/05 09:48:50;;;;;;;3.57;3.30;;;10.00;99.90;;;;;;5067759;28;20511;-68
2023/03/05 09:51:22;;;;;;;2.63;2.43;;;9.70;99.90;;;;;;5113626;28;20426;-69
2023/03/05 09:54:03;;;;;;;4.90;2.60;;;9.50;99.90;;;;;;5113643;28;20743;-69
2023/03/05 09:56:34;;;;;;;9.27;2.47;;;9.50;99.90;;;;;;5113578;28;20768;-66
2023/03/05 09:59:14;;;;;;;6.30;3.13;;;9.40;99.90;;;;;;5113271;28;20403;-67
2023/03/05 10:01:43;;;;;;;6.20;3.80;;;9.40;99.90;;;;;;5113331;28;20459;-67
2023/03/05 10:04:26;;;;;;;5.83;3.27;;;9.40;99.90;;;;;;5113360;28;20410;-69
2023/03/05 10:06:57;;;;;;;4.30;2.97;;;9.40;99.90;;;;;;5113196;28;20429;-67
2023/03/05 10:09:41;;;;;;;3.67;3.37;;;9.50;99.90;;;;;;5113240;28;20457;-69
2023/03/05 10:12:32;;;;;;;6.00;3.87;;;9.50;99.90;;;;;;5115386;27;20985;-67
2023/03/05 10:15:01;;;;;;;5.67;3.80;;;9.60;99.90;;;;;;5131351;27;20980;-68
2023/03/05 10:17:48;;;;;;;4.70;3.63;;;9.50;99.90;;;;;;5133654;27;20956;-67
2023/03/05 10:20:32;;;;;;;3.93;3.60;;;9.40;99.90;;;;;;5133603;27;20496;-67
2023/03/05 10:23:07;;;;;;;8.63;3.43;;;9.40;99.90;;;;;;5132749;27;20397;-67
2023/03/05 10:26:00;;;;;;;9.10;4.00;;;9.30;99.90;;;;;;5133612;27;20442;-67
2023/03/05 10:28:34;;;;;;;7.10;3.60;;;9.20;99.90;;;;;;5133106;27;20437;-67
2023/03/05 10:31:37;;;;;;;4.80;4.07;;;9.30;99.90;;;;;;5133525;27;20750;-66
2023/03/05 10:34:06;;;;;;;10.23;4.90;;;9.30;99.90;;;;;;5135986;27;20389;-67
2023/03/05 10:37:10;;;;;;;13.43;6.27;;;9.30;99.90;;;;;;5136262;27;20899;-67
2023/03/05 10:39:57;;;;;;;4.23;3.83;;;9.20;99.90;;;;;;5135701;27;20400;-68
2023/03/05 10:42:54;;;;;;;4.97;3.43;;;9.50;99.90;;;;;;5134262;27;20449;-67
2023/03/05 10:45:41;;;;;;;3.90;2.70;;;9.70;99.90;;;;;;5113113;27;20418;-68
2023/03/05 10:48:19;;;;;;;6.57;3.60;;;9.70;99.90;;;;;;5110709;28;21179;-68
2023/03/05 10:50:55;;;;;;;3.90;3.47;;;9.70;99.90;;;;;;5130978;27;20416;-68
2023/03/05 10:53:27;;;;;;;3.73;3.37;;;9.50;99.90;;;;;;5137238;27;20405;-69
2023/03/05 10:55:55;;;;;;;7.93;4.20;;;9.40;99.90;;;;;;5120305;27;20495;-68
2023/03/05 10:58:22;;;;;;;6.93;4.80;;;9.30;99.90;;;;;;5112100;28;20426;-69
2023/03/05 11:01:11;;;;;;;4.77;3.90;;;9.30;99.90;;;;;;5112413;28;20883;-68
2023/03/05 11:03:54;;;;;;;4.53;3.77;;;9.20;99.90;;;;;;5112492;28;20395;-68
2023/03/05 11:06:29;;;;;;;4.90;3.83;;;9.10;99.90;;;;;;5112316;28;20405;-68
2023/03/05 11:09:07;;;;;;;4.43;3.53;;;8.90;99.90;;;;;;5111902;28;20438;-68
2023/03/05 11:11:33;;;;;;;6.00;4.03;;;8.80;99.90;;;;;;5115135;28;21007;-69
2023/03/05 11:14:02;;;;;;;7.30;5.10;;;8.80;99.90;;;;;;5118507;28;20492;-69
2023/03/05 11:16:31;;;;;;;5.43;3.70;;;8.90;99.90;;;;;;5113332;28;20165;-69
2023/03/05 11:19:18;;;;;;;4.03;3.03;;;8.90;99.90;;;;;;5115882;28;20406;-68
2023/03/05 11:21:45;;;;;;;7.47;3.87;;;8.90;99.90;;;;;;5116179;28;20446;-68
2023/03/05 11:24:14;;;;;;;4.73;4.20;;;8.70;99.90;;;;;;5116312;28;20904;-68
2023/03/05 11:26:51;;;;;;;5.23;4.73;;;8.60;99.90;;;;;;5116237;28;20418;-69
2023/03/05 11:29:21;;;;;;;8.60;4.70;;;8.50;99.90;;;;;;5116350;28;20442;-69
2023/03/05 11:31:47;;;;;;;6.73;5.27;;;8.40;99.90;;;;;;5114131;28;20427;-69
2023/03/05 11:34:18;;;;;;;6.80;4.03;;;8.30;99.90;;;;;;5117685;28;20436;-69
2023/03/05 11:36:49;;;;;;;4.73;4.23;;;8.30;99.90;;;;;;5119598;28;20783;-67
2023/03/05 11:39:18;;;;;;;6.20;4.60;;;8.20;99.90;;;;;;5119566;28;20989;-68
2023/03/05 11:41:55;;;;;;;5.00;4.30;;;8.10;99.90;;;;;;5120727;27;20458;-67
2023/03/05 11:44:40;;;;;;;8.07;3.97;;;8.10;99.90;;;;;;5119384;27;20492;-68
2023/03/05 11:47:16;;;;;;;5.37;4.30;;;8.00;99.90;;;;;;5103596;28;20464;-66
2023/03/05 11:49:45;;;;;;;5.33;4.43;;;7.90;99.90;;;;;;5119318;28;21020;-68
2023/03/05 11:52:17;;;;;;;7.03;4.60;;;7.90;99.90;;;;;;5119192;28;20398;-68
2023/03/05 11:54:51;;;;;;;6.00;5.10;;;8.00;99.90;;;;;;5118105;28;20423;-68
2023/03/05 11:57:18;;;;;;;5.47;4.93;;;8.10;99.90;;;;;;5115617;28;20398;-69
2023/03/05 11:59:44;;;;;;;5.07;4.40;;;8.20;99.90;;;;;;5115716;28;20452;-69
2023/03/05 12:02:17;;;;;;;5.27;3.90;;;8.40;99.90;;;;;;5132822;27;20774;-71
2023/03/05 12:04:43;;;;;;;6.20;5.10;;;8.50;99.90;;;;;;5131209;27;20399;-69
2023/03/05 12:07:12;;;;;;;5.40;4.90;;;8.60;99.90;;;;;;5115378;28;20488;-69
2023/03/05 12:09:48;;;;;;;4.57;4.17;;;8.70;99.90;;;;;;5115685;28;20226;-68
2023/03/05 12:12:36;;;;;;;6.07;4.00;;;8.90;99.90;;;;;;5118817;27;20416;-67
2023/03/05 12:15:16;;;;;;;4.23;3.83;;;9.00;99.90;;;;;;5134847;27;20401;-69
2023/03/05 12:18:03;;;;;;;6.10;3.30;;;9.10;99.90;;;;;;5127876;27;20404;-68
2023/03/05 12:21:01;;;;;;;6.57;3.80;;;9.00;99.90;;;;;;5133078;27;20478;-67
2023/03/05 12:23:28;;;;;;;4.43;3.23;;;9.10;99.90;;;;;;5090391;27;20924;-69
2023/03/05 12:25:58;;;;;;;4.53;3.60;;;9.00;99.90;;;;;;5135251;27;20500;-69
2023/03/05 12:28:51;;;;;;;4.37;3.70;;;9.00;99.90;;;;;;5134782;27;20223;-69
2023/03/05 12:31:37;;;;;;;4.47;3.77;;;8.90;99.90;;;;;;5137391;27;20429;-69
2023/03/05 12:34:40;;;;;;;3.30;3.00;;;8.90;99.90;;;;;;5136052;27;20408;-69
2023/03/05 12:37:32;;;;;;;5.30;3.17;;;8.90;99.90;;;;;;5135352;27;20480;-69
2023/03/05 12:40:03;;;;;;;5.50;3.77;;;8.90;99.90;;;;;;5136004;27;20437;-68
2023/03/05 12:42:28;;;;;;;5.13;4.10;;;8.80;99.90;;;;;;5120091;27;20469;-69
2023/03/05 12:45:10;;;;;;;6.93;4.10;;;8.80;99.90;;;;;;5115062;28;20403;-69
2023/03/05 12:47:39;;;;;;;5.10;4.60;;;8.80;99.90;;;;;;5115846;28;20165;-68
2023/03/05 12:50:27;;;;;;;4.40;4.00;;;8.70;99.90;;;;;;5115654;28;20458;-68
2023/03/05 12:53:03;;;;;;;5.17;4.60;;;8.60;99.90;;;;;;5115521;28;20872;-68
2023/03/05 12:55:46;;;;;;;6.27;4.90;;;8.60;99.90;;;;;;5113522;28;20447;-68
2023/03/05 12:58:33;;;;;;;6.73;5.77;;;8.50;99.90;;;;;;5115182;28;20442;-68
2023/03/05 13:01:20;;;;;;;15.67;5.10;;;8.50;99.90;;;;;;5115365;28;20515;-68
2023/03/05 13:03:53;;;;;;;7.13;5.70;;;8.60;99.90;;;;;;5114530;28;20421;-69
2023/03/05 13:06:24;;;;;;;12.77;5.20;;;8.60;99.90;;;;;;5115174;28;20411;-69